createdAt,value
2023-02-13T00:01:32.961Z,-4.57
2023-02-13T00:04:01.340Z,-4.55
2023-02-13T00:06:32.082Z,-4.53
2023-02-13T00:09:01.068Z,-4.52
2023-02-13T00:11:36.646Z,-4.51
2023-02-13T00:14:05.959Z,-4.49
2023-02-13T00:16:34.803Z,-4.48
2023-02-13T00:19:03.416Z,-4.47
2023-02-13T00:21:36.374Z,-4.47
2023-02-13T00:24:06.707Z,-4.47
2023-02-13T00:26:35.190Z,-4.48
2023-02-13T00:29:10.050Z,-4.48
2023-02-13T00:31:40.459Z,-4.48
2023-02-13T00:34:09.117Z,-4.48
2023-02-13T00:36:38.477Z,-4.48
2023-02-13T00:39:07.062Z,-4.49
2023-02-13T00:41:36.045Z,-4.50
2023-02-13T00:44:04.990Z,-4.50
2023-02-13T00:46:34.780Z,-4.51
2023-02-13T00:49:03.716Z,-4.51
2023-02-13T00:51:35.036Z,-4.51
2023-02-13T00:54:03.793Z,-4.51
2023-02-13T00:56:34.565Z,-4.51
2023-02-13T00:59:05.294Z,-4.52
2023-02-13T01:01:34.641Z,-4.54
2023-02-13T01:04:03.507Z,-4.56
2023-02-13T01:06:32.386Z,-4.58
2023-02-13T01:09:03.594Z,-4.59
2023-02-13T01:11:32.288Z,-4.61
2023-02-13T01:14:02.177Z,-4.62
2023-02-13T01:16:32.962Z,-4.65
2023-02-13T01:19:03.398Z,-4.69
2023-02-13T01:21:33.137Z,-4.71
2023-02-13T01:24:04.163Z,-4.73
2023-02-13T01:26:33.039Z,-4.76
2023-02-13T01:29:02.196Z,-4.79
2023-02-13T01:31:30.726Z,-4.84
2023-02-13T01:34:00.035Z,-4.89
2023-02-13T01:36:30.044Z,-4.94
2023-02-13T01:38:59.748Z,-4.98
2023-02-13T01:41:29.000Z,-5.00
2023-02-13T01:44:00.287Z,-5.03
2023-02-13T01:46:42.851Z,-5.06
2023-02-13T01:49:15.983Z,-5.09
2023-02-13T01:51:44.678Z,-5.12
2023-02-13T01:54:19.317Z,-5.17
2023-02-13T01:56:54.810Z,-5.21
2023-02-13T01:59:31.621Z,-5.26
2023-02-13T02:02:00.168Z,-5.30
2023-02-13T02:04:34.045Z,-5.33
2023-02-13T02:07:14.724Z,-5.36
2023-02-13T02:09:44.512Z,-5.38
2023-02-13T02:12:17.830Z,-5.42
2023-02-13T02:14:51.512Z,-5.45
2023-02-13T02:17:22.434Z,-5.48
2023-02-13T02:19:57.800Z,-5.52
2023-02-13T02:23:21.581Z,-5.55
2023-02-13T02:26:23.002Z,-5.62
2023-02-13T02:29:31.418Z,-5.71
2023-02-13T02:32:19.214Z,-5.80
2023-02-13T02:35:13.585Z,-5.87
2023-02-13T02:38:06.424Z,-5.96
2023-02-13T02:40:50.773Z,-6.06
2023-02-13T02:43:24.637Z,-6.23
2023-02-13T02:46:25.554Z,-6.44
2023-02-13T02:49:16.093Z,-6.68
2023-02-13T02:51:54.440Z,-6.88
2023-02-13T02:54:44.602Z,-7.02
2023-02-13T02:57:17.393Z,-7.18
2023-02-13T03:00:05.072Z,-7.31
2023-02-13T03:02:52.331Z,-7.47
2023-02-13T03:05:57.777Z,-7.64
2023-02-13T03:08:48.215Z,-7.83
2023-02-13T03:11:35.594Z,-7.98
2023-02-13T03:14:04.914Z,-8.11
2023-02-13T03:16:52.324Z,-8.19
2023-02-13T03:19:48.592Z,-8.29
2023-02-13T03:22:28.553Z,-8.38
2023-02-13T03:25:18.996Z,-8.47
2023-02-13T03:28:20.632Z,-8.54
2023-02-13T03:31:16.118Z,-8.61
2023-02-13T03:33:59.687Z,-8.65
2023-02-13T03:37:06.909Z,-8.68
2023-02-13T03:39:44.840Z,-8.72
2023-02-13T03:42:49.492Z,-8.77
2023-02-13T03:45:48.273Z,-8.84
2023-02-13T03:48:59.122Z,-8.91
2023-02-13T03:51:44.075Z,-8.99
2023-02-13T03:54:47.873Z,-9.07
2023-02-13T03:57:37.760Z,-9.15
2023-02-13T04:00:08.919Z,-9.25
2023-02-13T04:02:52.991Z,-9.36
2023-02-13T04:05:23.477Z,-9.47
2023-02-13T04:07:52.270Z,-9.57
2023-02-13T04:18:27.330Z,-9.77
2023-02-13T04:20:56.070Z,-9.84
2023-02-13T04:23:25.155Z,-9.89
2023-02-13T04:25:54.571Z,-9.93
2023-02-13T04:28:24.834Z,-9.95
2023-02-13T04:30:53.443Z,-9.97
2023-02-13T04:33:22.776Z,-10.01
2023-02-13T04:35:51.434Z,-10.04
2023-02-13T04:38:20.734Z,-10.04
2023-02-13T04:40:49.532Z,-10.00
2023-02-13T04:43:18.105Z,-9.99
2023-02-13T04:53:32.033Z,-10.27
2023-02-13T04:56:00.630Z,-10.35
2023-02-13T04:58:29.785Z,-10.37
2023-02-13T05:00:58.637Z,-10.35
2023-02-13T05:03:27.889Z,-10.25
2023-02-13T05:05:56.829Z,-10.14
2023-02-13T05:08:26.270Z,-10.04
2023-02-13T05:10:56.187Z,-9.92
2023-02-13T05:13:30.403Z,-9.74
2023-02-13T05:15:58.899Z,-9.52
2023-02-13T05:18:27.686Z,-9.32
2023-02-13T05:21:15.090Z,-9.10
2023-02-13T05:23:43.577Z,-8.86
2023-02-13T05:26:12.259Z,-8.63
2023-02-13T05:28:59.480Z,-8.39
2023-02-13T05:31:28.683Z,-8.13
2023-02-13T05:33:57.294Z,-7.90
2023-02-13T05:36:26.049Z,-7.67
2023-02-13T05:38:54.541Z,-7.41
2023-02-13T05:41:23.018Z,-7.10
2023-02-13T05:43:51.495Z,-6.74
2023-02-13T05:46:19.810Z,-6.35
2023-02-13T05:48:52.463Z,-5.86
2023-02-13T05:51:21.244Z,-5.16
2023-02-13T05:53:49.740Z,-4.21
2023-02-13T05:56:18.842Z,-3.16
2023-02-13T05:58:47.432Z,-2.18
2023-02-13T06:01:15.912Z,-1.31
2023-02-13T06:03:44.858Z,-0.70
2023-02-13T06:06:13.633Z,-0.15
2023-02-13T06:08:42.862Z,0.45
2023-02-13T06:11:12.159Z,1.05
2023-02-13T06:13:41.048Z,1.44
2023-02-13T06:16:10.252Z,1.75
2023-02-13T06:18:40.160Z,2.14
2023-02-13T06:21:08.541Z,2.44
2023-02-13T06:23:37.431Z,2.60
2023-02-13T06:26:06.657Z,2.67
2023-02-13T06:28:36.656Z,2.80
2023-02-13T06:31:05.427Z,2.88
2023-02-13T06:33:34.042Z,2.89
2023-02-13T06:36:02.617Z,3.00
2023-02-13T06:38:32.356Z,3.09
2023-02-13T06:41:02.300Z,3.25
2023-02-13T06:43:30.856Z,3.54
2023-02-13T06:45:59.638Z,3.75
2023-02-13T06:48:28.397Z,3.82
2023-02-13T06:50:57.353Z,3.98
2023-02-13T06:53:26.272Z,4.22
2023-02-13T06:55:55.436Z,4.34
2023-02-13T06:58:24.876Z,4.60
2023-02-13T07:00:53.893Z,5.06
2023-02-13T07:03:22.790Z,5.47
2023-02-13T07:05:52.260Z,5.82
2023-02-13T07:08:20.665Z,6.14
2023-02-13T07:10:50.464Z,6.40
2023-02-13T07:13:20.197Z,6.62
2023-02-13T07:15:48.604Z,6.70
2023-02-13T07:18:18.359Z,6.72
2023-02-13T07:20:47.530Z,6.68
2023-02-13T07:23:16.361Z,6.63
2023-02-13T07:25:45.268Z,6.48
2023-02-13T07:28:14.045Z,6.20
2023-02-13T07:30:42.956Z,6.01
2023-02-13T07:33:13.350Z,5.84
2023-02-13T07:35:50.326Z,5.58
2023-02-13T07:38:22.392Z,5.54
2023-02-13T07:40:51.176Z,5.61
2023-02-13T07:43:19.454Z,5.70
2023-02-13T07:45:48.151Z,5.84
2023-02-13T07:48:16.740Z,6.25
2023-02-13T07:50:45.211Z,6.46
2023-02-13T07:53:13.908Z,6.73
2023-02-13T07:55:43.209Z,7.00
2023-02-13T07:58:12.098Z,7.12
2023-02-13T08:00:40.873Z,7.27
2023-02-13T08:03:10.379Z,7.44
2023-02-13T08:05:39.576Z,7.50
2023-02-13T08:08:08.390Z,7.53
2023-02-13T08:10:59.601Z,7.56
2023-02-13T08:13:28.225Z,7.47
2023-02-13T08:15:56.863Z,7.19
2023-02-13T08:18:25.872Z,7.00
2023-02-13T08:20:54.628Z,6.96
2023-02-13T08:23:23.911Z,6.92
2023-02-13T08:25:55.134Z,6.95
2023-02-13T08:28:24.754Z,7.04
2023-02-13T08:30:54.137Z,7.09
2023-02-13T08:33:23.689Z,7.09
2023-02-13T08:35:52.205Z,7.09
2023-02-13T08:38:23.107Z,6.96
2023-02-13T08:40:51.694Z,6.79
2023-02-13T08:43:20.173Z,6.71
2023-02-13T08:45:48.688Z,6.48
2023-02-13T08:48:17.092Z,6.13
2023-02-13T08:50:45.678Z,5.79
2023-02-13T08:53:15.459Z,5.49
2023-02-13T08:55:44.010Z,5.29
2023-02-13T08:58:13.635Z,4.94
2023-02-13T09:00:42.307Z,4.55
2023-02-13T09:03:11.380Z,4.31
2023-02-13T09:05:39.994Z,4.14
2023-02-13T09:08:11.710Z,4.11
2023-02-13T09:10:40.664Z,4.11
2023-02-13T09:13:13.315Z,4.19
2023-02-13T09:15:41.903Z,4.24
2023-02-13T09:18:10.586Z,4.17
2023-02-13T09:20:39.483Z,4.04
2023-02-13T09:23:08.139Z,3.91
2023-02-13T09:25:36.848Z,3.87
2023-02-13T09:28:06.351Z,3.91
2023-02-13T09:30:35.181Z,3.95
2023-02-13T09:33:04.638Z,3.87
2023-02-13T09:35:33.149Z,3.74
2023-02-13T09:38:01.941Z,3.66
2023-02-13T09:40:37.401Z,3.56
2023-02-13T09:43:30.637Z,3.42
2023-02-13T09:46:01.465Z,3.26
2023-02-13T09:48:35.636Z,3.00
2023-02-13T09:51:04.776Z,2.74
2023-02-13T09:53:35.258Z,2.52
2023-02-13T09:56:03.943Z,2.36
2023-02-13T09:58:47.732Z,2.20
2023-02-13T10:01:16.162Z,2.06
2023-02-13T10:03:47.386Z,2.04
2023-02-13T10:06:23.850Z,1.99
2023-02-13T10:09:02.052Z,2.01
2023-02-13T10:11:49.496Z,2.18
2023-02-13T10:14:25.328Z,2.45
2023-02-13T10:16:56.045Z,2.65
2023-02-13T10:19:32.948Z,2.77
2023-02-13T10:22:12.668Z,2.98
2023-02-13T10:24:53.376Z,3.18
2023-02-13T10:27:26.394Z,3.23
2023-02-13T10:30:13.144Z,3.23
2023-02-13T10:33:18.742Z,3.22
2023-02-13T10:36:25.121Z,3.26
2023-02-13T10:39:00.194Z,3.31
2023-02-13T10:41:53.760Z,3.50
2023-02-13T10:44:47.436Z,3.71
2023-02-13T10:47:34.654Z,3.68
2023-02-13T10:50:08.978Z,3.67
2023-02-13T10:53:03.768Z,3.75
2023-02-13T10:55:54.163Z,3.90
2023-02-13T10:58:32.421Z,3.90
2023-02-13T11:01:07.423Z,3.74
2023-02-13T11:03:36.950Z,3.50
2023-02-13T11:06:12.210Z,3.24
2023-02-13T11:08:46.136Z,2.98
2023-02-13T11:11:35.532Z,2.80
2023-02-13T11:14:10.129Z,2.63
2023-02-13T11:17:02.556Z,2.58
2023-02-13T11:19:54.856Z,2.63
2023-02-13T11:22:33.309Z,2.65
2023-02-13T11:25:17.900Z,2.71
2023-02-13T11:27:46.368Z,2.72
2023-02-13T11:30:24.027Z,2.73
2023-02-13T11:33:25.235Z,2.62
2023-02-13T11:36:27.555Z,2.51
2023-02-13T11:39:19.143Z,2.54
2023-02-13T11:41:50.936Z,2.51
2023-02-13T11:44:28.610Z,2.52
2023-02-13T11:46:58.878Z,2.58
2023-02-13T11:49:37.679Z,2.72
2023-02-13T11:52:11.228Z,2.78
2023-02-13T11:54:40.954Z,2.95
2023-02-13T11:57:18.414Z,3.23
2023-02-13T11:59:48.229Z,3.40
2023-02-13T12:02:18.324Z,3.35
2023-02-13T12:04:47.689Z,3.17
2023-02-13T12:07:41.453Z,2.98
2023-02-13T12:10:17.519Z,2.80
2023-02-13T12:12:55.661Z,2.69
2023-02-13T12:15:42.138Z,2.70
2023-02-13T12:18:28.235Z,2.72
2023-02-13T12:21:10.090Z,2.65
2023-02-13T12:23:54.054Z,2.56
2023-02-13T12:26:42.954Z,2.46
2023-02-13T12:29:17.925Z,2.34
2023-02-13T12:32:11.122Z,2.20
2023-02-13T12:34:59.677Z,2.06
2023-02-13T12:37:54.301Z,1.84
2023-02-13T12:40:44.241Z,1.60
2023-02-13T12:43:19.373Z,1.34
2023-02-13T12:46:04.395Z,1.15
2023-02-13T12:48:40.606Z,0.96
2023-02-13T12:51:26.000Z,0.81
2023-02-13T12:54:13.416Z,0.64
2023-02-13T12:56:42.094Z,0.50
2023-02-13T12:59:30.457Z,0.38
2023-02-13T13:02:09.642Z,0.25
2023-02-13T13:04:52.019Z,0.16
2023-02-13T13:07:23.841Z,0.10
2023-02-13T13:10:18.485Z,0.05
2023-02-13T13:13:08.429Z,0.00
2023-02-13T13:15:49.432Z,-0.09
2023-02-13T13:18:38.052Z,-0.23
2023-02-13T13:21:14.937Z,-0.39
2023-02-13T13:24:01.266Z,-0.56
2023-02-13T13:26:38.208Z,-0.72
2023-02-13T13:29:11.340Z,-0.85
2023-02-13T13:31:40.378Z,-0.94
2023-02-13T13:34:15.351Z,-1.02
2023-02-13T13:36:47.472Z,-1.11
2023-02-13T13:39:34.201Z,-1.20
2023-02-13T13:42:18.863Z,-1.26
2023-02-13T13:44:49.902Z,-1.29
2023-02-13T13:47:33.119Z,-1.32
2023-02-13T13:50:02.034Z,-1.34
2023-02-13T13:52:37.437Z,-1.35
2023-02-13T13:55:07.096Z,-1.36
2023-02-13T13:57:41.504Z,-1.36
2023-02-13T14:00:13.999Z,-1.38
2023-02-13T14:02:48.068Z,-1.39
2023-02-13T14:05:28.513Z,-1.40
2023-02-13T14:08:04.374Z,-1.42
2023-02-13T14:10:32.949Z,-1.46
2023-02-13T14:13:02.800Z,-1.49
2023-02-13T14:15:39.011Z,-1.54
2023-02-13T14:18:18.185Z,-1.59
2023-02-13T14:20:50.957Z,-1.64
2023-02-13T14:23:32.093Z,-1.70
2023-02-13T14:26:17.116Z,-1.80
2023-02-13T14:28:51.633Z,-1.89
2023-02-13T14:31:28.983Z,-1.97
2023-02-13T14:34:26.730Z,-2.03
2023-02-13T14:37:07.866Z,-2.10
2023-02-13T14:39:42.345Z,-2.14
2023-02-13T14:42:25.637Z,-2.16
2023-02-13T14:44:58.766Z,-2.20
2023-02-13T14:47:35.789Z,-2.27
2023-02-13T14:50:05.096Z,-2.33
2023-02-13T14:52:35.940Z,-2.39
2023-02-13T14:55:07.247Z,-2.44
2023-02-13T14:57:54.510Z,-2.47
2023-02-13T15:00:36.866Z,-2.53
2023-02-13T15:03:16.823Z,-2.59
2023-02-13T15:05:50.998Z,-2.62
2023-02-13T15:08:21.495Z,-2.64
2023-02-13T15:10:54.401Z,-2.64
2023-02-13T15:13:29.194Z,-2.63
2023-02-13T15:16:09.011Z,-2.65
2023-02-13T15:18:56.164Z,-2.68
2023-02-13T15:21:24.685Z,-2.68
2023-02-13T15:23:58.280Z,-2.68
2023-02-13T15:26:30.612Z,-2.68
2023-02-13T15:29:00.661Z,-2.68
2023-02-13T15:31:33.748Z,-2.66
2023-02-13T15:34:03.060Z,-2.65
2023-02-13T15:36:36.280Z,-2.64
2023-02-13T15:39:09.797Z,-2.63
2023-02-13T15:41:39.858Z,-2.63
2023-02-13T15:44:39.039Z,-2.61
2023-02-13T15:47:09.601Z,-2.59
2023-02-13T15:49:39.915Z,-2.58
2023-02-13T15:52:34.849Z,-2.57
2023-02-13T15:55:04.626Z,-2.58
2023-02-13T15:57:34.677Z,-2.57
2023-02-13T16:00:04.242Z,-2.56
2023-02-13T16:02:43.947Z,-2.55
2023-02-13T16:05:15.137Z,-2.53
2023-02-13T16:07:57.755Z,-2.52
2023-02-13T16:10:34.728Z,-2.50
2023-02-13T16:13:05.781Z,-2.48
2023-02-13T16:15:41.803Z,-2.46
2023-02-13T16:18:17.739Z,-2.43
2023-02-13T16:20:47.034Z,-2.42
2023-02-13T16:23:17.564Z,-2.41
2023-02-13T16:25:46.118Z,-2.40
2023-02-13T16:28:25.838Z,-2.39
2023-02-13T16:31:04.134Z,-2.38
2023-02-13T16:33:42.408Z,-2.38
2023-02-13T16:36:12.072Z,-2.36
2023-02-13T16:38:50.180Z,-2.34
2023-02-13T16:41:28.746Z,-2.34
2023-02-13T16:44:01.112Z,-2.33
2023-02-13T16:46:39.782Z,-2.33
2023-02-13T16:49:10.954Z,-2.32
2023-02-13T16:51:40.499Z,-2.31
2023-02-13T16:54:12.152Z,-2.31
2023-02-13T16:56:52.564Z,-2.31
2023-02-13T16:59:22.374Z,-2.31
2023-02-13T17:02:16.065Z,-2.31
2023-02-13T17:04:55.806Z,-2.31
2023-02-13T17:07:28.974Z,-2.31
2023-02-13T17:10:03.121Z,-2.31
2023-02-13T17:12:35.270Z,-2.30
2023-02-13T17:15:05.383Z,-2.29
2023-02-13T17:17:34.584Z,-2.28
2023-02-13T17:20:04.414Z,-2.25
2023-02-13T17:22:53.725Z,-2.24
2023-02-13T17:25:27.265Z,-2.21
2023-02-13T17:27:58.375Z,-2.19
2023-02-13T17:30:29.145Z,-2.17
2023-02-13T17:33:07.054Z,-2.14
2023-02-13T17:35:37.978Z,-2.13
2023-02-13T17:38:09.672Z,-2.12
2023-02-13T17:40:41.554Z,-2.14
2023-02-13T17:43:15.049Z,-2.14
2023-02-13T17:45:44.429Z,-2.13
2023-02-13T17:48:12.993Z,-2.08
2023-02-13T17:50:42.523Z,-2.02
2023-02-13T17:53:19.692Z,-1.96
2023-02-13T17:55:49.879Z,-1.89
2023-02-13T17:58:26.016Z,-1.84
2023-02-13T18:00:55.297Z,-1.80
2023-02-13T18:03:26.095Z,-1.77
2023-02-13T18:05:58.262Z,-1.73
2023-02-13T18:08:28.598Z,-1.70
2023-02-13T18:11:01.877Z,-1.67
2023-02-13T18:13:31.230Z,-1.64
2023-02-13T18:16:00.577Z,-1.60
2023-02-13T18:18:31.189Z,-1.58
2023-02-13T18:21:00.908Z,-1.55
2023-02-13T18:23:29.972Z,-1.52
2023-02-13T18:26:09.715Z,-1.50
2023-02-13T18:28:38.882Z,-1.48
2023-02-13T18:31:10.200Z,-1.45
2023-02-13T18:33:44.010Z,-1.43
2023-02-13T18:36:13.685Z,-1.40
2023-02-13T18:38:42.610Z,-1.38
2023-02-13T18:41:11.261Z,-1.37
2023-02-13T18:43:40.245Z,-1.34
2023-02-13T18:46:10.774Z,-1.31
2023-02-13T18:48:39.711Z,-1.29
2023-02-13T18:51:08.500Z,-1.26
2023-02-13T18:53:38.363Z,-1.23
2023-02-13T18:56:08.269Z,-1.21
2023-02-13T18:58:37.456Z,-1.19
2023-02-13T19:01:10.682Z,-1.17
2023-02-13T19:03:40.179Z,-1.15
2023-02-13T19:06:11.330Z,-1.13
2023-02-13T19:08:40.740Z,-1.11
2023-02-13T19:11:17.080Z,-1.09
2023-02-13T19:13:48.096Z,-1.07
2023-02-13T19:16:18.994Z,-1.05
2023-02-13T19:18:53.639Z,-1.02
2023-02-13T19:21:31.005Z,-1.00
2023-02-13T19:24:01.631Z,-0.98
2023-02-13T19:26:31.112Z,-0.96
2023-02-13T19:29:00.779Z,-0.93
2023-02-13T19:31:32.135Z,-0.91
2023-02-13T19:34:03.053Z,-0.88
2023-02-13T19:36:32.767Z,-0.86
2023-02-13T19:39:07.165Z,-0.83
2023-02-13T19:41:36.473Z,-0.80
2023-02-13T19:44:06.596Z,-0.77
2023-02-13T19:46:35.680Z,-0.74
2023-02-13T19:49:05.692Z,-0.71
2023-02-13T19:51:34.632Z,-0.69
2023-02-13T19:54:05.827Z,-0.67
2023-02-13T19:56:37.098Z,-0.65
2023-02-13T19:59:07.495Z,-0.65
2023-02-13T20:01:38.494Z,-0.62
2023-02-13T20:04:10.033Z,-0.61
2023-02-13T20:06:39.466Z,-0.60
2023-02-13T20:09:11.511Z,-0.59
2023-02-13T20:11:40.767Z,-0.59
2023-02-13T20:14:15.209Z,-0.59
2023-02-13T20:16:46.682Z,-0.58
2023-02-13T20:19:16.905Z,-0.58
2023-02-13T20:21:46.190Z,-0.57
2023-02-13T20:24:15.339Z,-0.56
2023-02-13T20:26:44.549Z,-0.55
2023-02-13T20:29:13.927Z,-0.54
2023-02-13T20:31:43.255Z,-0.54
2023-02-13T20:34:13.145Z,-0.54
2023-02-13T20:36:44.270Z,-0.53
2023-02-13T20:39:14.673Z,-0.52
2023-02-13T20:41:48.590Z,-0.52
2023-02-13T20:44:21.150Z,-0.52
2023-02-13T20:46:49.840Z,-0.53
2023-02-13T20:49:22.223Z,-0.52
2023-02-13T20:51:53.382Z,-0.51
2023-02-13T20:54:22.453Z,-0.51
2023-02-13T20:56:51.034Z,-0.49
2023-02-13T20:59:19.924Z,-0.48
2023-02-13T21:01:49.223Z,-0.49
2023-02-13T21:04:19.605Z,-0.48
2023-02-13T21:06:48.232Z,-0.48
2023-02-13T21:09:16.938Z,-0.47
2023-02-13T21:11:46.537Z,-0.46
2023-02-13T21:14:15.129Z,-0.45
2023-02-13T21:16:43.726Z,-0.44
2023-02-13T21:19:15.262Z,-0.42
2023-02-13T21:21:44.547Z,-0.41
2023-02-13T21:24:15.768Z,-0.39
2023-02-13T21:26:46.388Z,-0.36
2023-02-13T21:29:15.086Z,-0.35
2023-02-13T21:31:47.496Z,-0.33
2023-02-13T21:34:17.455Z,-0.30
2023-02-13T21:36:48.693Z,-0.28
2023-02-13T21:39:17.162Z,-0.26
2023-02-13T21:41:45.938Z,-0.25
2023-02-13T21:44:15.437Z,-0.23
2023-02-13T21:46:46.447Z,-0.21
2023-02-13T21:49:16.715Z,-0.20
2023-02-13T21:51:46.421Z,-0.19
2023-02-13T21:54:34.756Z,-0.20
2023-02-13T21:57:04.186Z,-0.18
2023-02-13T21:59:33.065Z,-0.17
2023-02-13T22:02:03.111Z,-0.16
2023-02-13T22:04:31.799Z,-0.15
2023-02-13T22:07:00.473Z,-0.15
2023-02-13T22:09:29.195Z,-0.14
2023-02-13T22:11:57.784Z,-0.13
2023-02-13T22:14:26.285Z,-0.12
2023-02-13T22:16:55.192Z,-0.11
2023-02-13T22:19:26.520Z,-0.10
2023-02-13T22:21:55.086Z,-0.09
2023-02-13T22:24:23.874Z,-0.06
2023-02-13T22:26:52.149Z,-0.04
2023-02-13T22:29:23.325Z,-0.02
2023-02-13T22:31:51.930Z,-0.02
2023-02-13T22:34:20.709Z,-0.03
2023-02-13T22:36:49.074Z,-0.03
2023-02-13T22:39:17.648Z,0.00
2023-02-13T22:41:46.327Z,0.02
2023-02-13T22:44:14.899Z,0.03
2023-02-13T22:46:45.661Z,0.02
2023-02-13T22:49:14.395Z,0.02
2023-02-13T22:51:42.915Z,0.04
2023-02-13T22:54:11.903Z,-0.02
2023-02-13T22:56:40.613Z,-0.03
2023-02-13T22:59:09.267Z,-0.03
2023-02-13T23:01:38.862Z,-0.03
2023-02-13T23:04:07.466Z,-0.02
2023-02-13T23:06:36.095Z,-0.01
2023-02-13T23:09:04.537Z,0.00
2023-02-13T23:11:52.038Z,0.01
2023-02-13T23:14:25.202Z,0.01
2023-02-13T23:17:12.364Z,0.03
2023-02-13T23:19:41.283Z,0.03
2023-02-13T23:22:12.593Z,0.03
2023-02-13T23:24:41.065Z,0.04
2023-02-13T23:27:10.166Z,0.05
2023-02-13T23:29:39.158Z,0.05
2023-02-13T23:32:08.188Z,0.06
2023-02-13T23:34:36.968Z,0.07
2023-02-13T23:37:05.834Z,0.08
2023-02-13T23:39:34.590Z,0.09
2023-02-13T23:42:03.208Z,0.09
2023-02-13T23:44:32.192Z,0.10
2023-02-13T23:47:00.807Z,0.12
2023-02-13T23:49:29.789Z,0.13
2023-02-13T23:51:59.684Z,0.15
2023-02-13T23:54:28.163Z,0.17
2023-02-13T23:56:56.963Z,0.18
2023-02-13T23:59:25.739Z,0.19
